createdAt,value
2017-08-22T00:00:16.240Z,1016.25
2017-08-22T00:01:16.263Z,1016.23
2017-08-22T00:02:16.287Z,1016.22
2017-08-22T00:03:16.309Z,1016.19
2017-08-22T00:04:16.332Z,1016.19
2017-08-22T00:05:16.355Z,1016.2
2017-08-22T00:06:16.374Z,1016.17
2017-08-22T00:08:16.424Z,1016.13
2017-08-22T00:09:16.441Z,1016.13
2017-08-22T00:10:16.464Z,1016.1
2017-08-22T00:11:16.494Z,1016.09
2017-08-22T00:12:16.515Z,1016.11
2017-08-22T00:13:16.537Z,1016.11
2017-08-22T00:14:16.562Z,1016.13
2017-08-22T00:15:16.583Z,1016.07
2017-08-22T00:16:16.603Z,1016.09
2017-08-22T00:17:16.631Z,1016.1
2017-08-22T00:18:16.651Z,1016.11
2017-08-22T00:19:16.676Z,1016.14
2017-08-22T00:20:16.696Z,1016.16
2017-08-22T00:21:16.717Z,1016.12
2017-08-22T00:22:16.742Z,1016.1
2017-08-22T00:23:16.763Z,1016.15
2017-08-22T00:24:16.790Z,1016.08
2017-08-22T00:25:16.810Z,1016.09
2017-08-22T00:26:16.833Z,1016.11
2017-08-22T00:27:16.853Z,1016.1
2017-08-22T00:28:16.877Z,1016.11
2017-08-22T00:29:16.902Z,1016.09
2017-08-22T00:30:16.922Z,1016.05
2017-08-22T00:31:16.949Z,1016.06
2017-08-22T00:32:16.970Z,1016.07
2017-08-22T00:33:16.993Z,1016.04
2017-08-22T00:34:17.016Z,1016.04
2017-08-22T00:35:17.041Z,1016.07
2017-08-22T00:36:17.062Z,1016.05
2017-08-22T00:37:17.083Z,1016.05
2017-08-22T00:38:17.111Z,1016.06
2017-08-22T00:40:17.155Z,1016.07
2017-08-22T00:41:17.223Z,1016.08
2017-08-22T00:42:17.194Z,1016.1
2017-08-22T00:43:17.219Z,1016.07
2017-08-22T00:44:17.243Z,1016.11
2017-08-22T00:45:17.263Z,1016.11
2017-08-22T00:46:17.288Z,1016.14
2017-08-22T00:47:17.312Z,1016.13
2017-08-22T00:48:17.334Z,1016.11
2017-08-22T00:49:17.354Z,1016.12
2017-08-22T00:50:17.375Z,1016.11
2017-08-22T00:51:17.400Z,1016.07
2017-08-22T00:52:17.423Z,1016.1
2017-08-22T00:53:17.447Z,1016.1
2017-08-22T00:54:17.466Z,1016.07
2017-08-22T00:56:17.514Z,1016.08
2017-08-22T00:57:17.532Z,1016.08
2017-08-22T00:58:17.559Z,1016.06
2017-08-22T00:59:17.582Z,1016.1
2017-08-22T01:00:17.604Z,1016.1
2017-08-22T01:01:17.626Z,1016.1
2017-08-22T01:02:17.648Z,1016.13
2017-08-22T01:03:17.674Z,1016.11
2017-08-22T01:04:17.693Z,1016.14
2017-08-22T01:05:17.715Z,1016.15
2017-08-22T01:06:17.740Z,1016.17
2017-08-22T01:07:17.762Z,1016.16
2017-08-22T01:08:17.787Z,1016.17
2017-08-22T01:09:17.805Z,1016.19
2017-08-22T01:10:17.830Z,1016.2
2017-08-22T01:12:17.875Z,1016.21
2017-08-22T01:13:17.898Z,1016.23
2017-08-22T01:14:17.917Z,1016.2
2017-08-22T01:15:17.944Z,1016.22
2017-08-22T01:16:17.964Z,1016.22
2017-08-22T01:17:17.993Z,1016.25
2017-08-22T01:18:18.009Z,1016.25
2017-08-22T01:19:18.032Z,1016.3
2017-08-22T01:20:18.053Z,1016.25
2017-08-22T01:21:18.075Z,1016.3
2017-08-22T01:22:18.096Z,1016.34
2017-08-22T01:23:18.145Z,1016.34
2017-08-22T01:24:18.148Z,1016.36
2017-08-22T01:25:18.168Z,1016.33
2017-08-22T01:26:18.191Z,1016.34
2017-08-22T01:28:18.234Z,1016.28
2017-08-22T01:29:18.258Z,1016.29
2017-08-22T01:30:18.279Z,1016.3
2017-08-22T01:31:18.304Z,1016.29
2017-08-22T01:32:18.327Z,1016.35
2017-08-22T01:33:18.346Z,1016.27
2017-08-22T01:34:18.371Z,1016.28
2017-08-22T01:35:18.391Z,1016.26
2017-08-22T01:36:18.418Z,1016.29
2017-08-22T01:37:18.437Z,1016.24
2017-08-22T01:38:18.462Z,1016.29
2017-08-22T01:39:18.481Z,1016.25
2017-08-22T01:40:18.510Z,1016.24
2017-08-22T01:41:18.526Z,1016.32
2017-08-22T01:43:18.574Z,1016.29
2017-08-22T01:44:18.597Z,1016.31
2017-08-22T01:45:18.619Z,1016.28
2017-08-22T01:46:18.645Z,1016.25
2017-08-22T01:47:18.664Z,1016.25
2017-08-22T01:48:18.684Z,1016.26
2017-08-22T01:49:18.710Z,1016.29
2017-08-22T01:50:18.732Z,1016.25
2017-08-22T01:51:18.755Z,1016.23
2017-08-22T01:52:18.775Z,1016.22
2017-08-22T01:53:18.799Z,1016.2
2017-08-22T01:54:18.822Z,1016.2
2017-08-22T01:55:18.839Z,1016.22
2017-08-22T01:56:18.862Z,1016.23
2017-08-22T01:57:18.888Z,1016.24
2017-08-22T01:58:18.913Z,1016.22
2017-08-22T01:59:18.932Z,1016.22
2017-08-22T02:00:18.958Z,1016.19
2017-08-22T02:01:18.975Z,1016.21
2017-08-22T02:02:19.001Z,1016.2
2017-08-22T02:03:19.022Z,1016.15
2017-08-22T02:04:19.045Z,1016.21
2017-08-22T02:05:19.067Z,1016.14
2017-08-22T02:06:19.089Z,1016.14
2017-08-22T02:07:19.110Z,1016.14
2017-08-22T02:08:19.132Z,1016.1
2017-08-22T02:09:19.158Z,1016.14
2017-08-22T02:10:19.181Z,1016.12
2017-08-22T02:11:19.255Z,1016.11
2017-08-22T02:12:19.224Z,1016.12
2017-08-22T02:13:19.245Z,1016.11
2017-08-22T02:15:19.291Z,1016.11
2017-08-22T02:16:19.313Z,1016.1
2017-08-22T02:17:19.332Z,1016.07
2017-08-22T02:18:19.358Z,1016.09
2017-08-22T02:19:19.380Z,1016.09
2017-08-22T02:20:19.402Z,1016.08
2017-08-22T02:21:19.423Z,1016.09
2017-08-22T02:22:19.441Z,1016.09
2017-08-22T02:23:19.469Z,1016.11
2017-08-22T02:24:19.491Z,1016.12
2017-08-22T02:25:19.512Z,1016.1
2017-08-22T02:26:19.532Z,1016.12
2017-08-22T02:27:19.560Z,1016.11
2017-08-22T02:28:19.578Z,1016.09
2017-08-22T02:29:19.602Z,1016.12
2017-08-22T02:31:19.652Z,1016.09
2017-08-22T02:32:19.670Z,1016.13
2017-08-22T02:33:19.695Z,1016.19
2017-08-22T02:34:19.713Z,1016.16
2017-08-22T02:35:19.735Z,1016.14
2017-08-22T02:36:19.753Z,1016.13
2017-08-22T02:37:19.781Z,1016.13
2017-08-22T02:38:19.805Z,1016.18
2017-08-22T02:39:19.824Z,1016.16
2017-08-22T02:40:19.847Z,1016.14
2017-08-22T02:41:19.865Z,1016.15
2017-08-22T02:42:19.892Z,1016.13
2017-08-22T02:43:19.913Z,1016.1
2017-08-22T02:44:19.938Z,1016.13
2017-08-22T02:45:19.961Z,1016.11
2017-08-22T02:47:20.006Z,1016.11
2017-08-22T02:48:20.025Z,1016.09
2017-08-22T02:49:20.047Z,1016.11
2017-08-22T02:50:20.069Z,1016.11
2017-08-22T02:51:20.088Z,1016.11
2017-08-22T02:52:20.116Z,1016.12
2017-08-22T02:53:20.141Z,1016.12
2017-08-22T02:54:20.157Z,1016.16
2017-08-22T02:55:20.180Z,1016.13
2017-08-22T02:56:20.203Z,1016.13
2017-08-22T02:57:20.222Z,1016.18
2017-08-22T02:58:20.250Z,1016.18
2017-08-22T02:59:20.269Z,1016.22
2017-08-22T03:00:20.291Z,1016.19
2017-08-22T03:01:20.309Z,1016.21
2017-08-22T03:03:20.360Z,1016.2
2017-08-22T03:04:20.379Z,1016.19
2017-08-22T03:05:20.397Z,1016.2
2017-08-22T03:06:20.420Z,1016.15
2017-08-22T03:07:20.448Z,1016.21
2017-08-22T03:08:20.467Z,1016.18
2017-08-22T03:09:20.491Z,1016.13
2017-08-22T03:10:20.507Z,1016.14
2017-08-22T03:11:20.545Z,1016.11
2017-08-22T03:12:20.552Z,1016.13
2017-08-22T03:13:20.579Z,1016.09
2017-08-22T03:14:20.600Z,1016.12
2017-08-22T03:15:20.622Z,1016.13
2017-08-22T03:16:20.654Z,1016.14
2017-08-22T03:18:20.687Z,1016.14
2017-08-22T03:19:20.710Z,1016.15
2017-08-22T03:20:20.736Z,1016.15
2017-08-22T03:21:20.756Z,1016.17
2017-08-22T03:22:20.780Z,1016.2
2017-08-22T03:23:20.797Z,1016.18
2017-08-22T03:24:20.823Z,1016.19
2017-08-22T03:25:20.844Z,1016.17
2017-08-22T03:26:20.869Z,1016.18
2017-08-22T03:27:20.887Z,1016.13
2017-08-22T03:28:20.913Z,1016.13
2017-08-22T03:29:20.932Z,1016.12
2017-08-22T03:30:20.952Z,1016.14
2017-08-22T03:31:20.978Z,1016.13
2017-08-22T03:32:20.998Z,1016.1
2017-08-22T03:33:21.020Z,1016.15
2017-08-22T03:34:21.041Z,1016.1
2017-08-22T03:35:21.067Z,1016.13
2017-08-22T03:36:21.089Z,1016.18
2017-08-22T03:37:21.108Z,1016.15
2017-08-22T03:38:21.129Z,1016.19
2017-08-22T03:39:21.153Z,1016.16
2017-08-22T03:40:21.173Z,1016.14
2017-08-22T03:41:21.195Z,1016.13
2017-08-22T03:42:21.218Z,1016.16
2017-08-22T03:43:21.239Z,1016.11
2017-08-22T03:44:21.264Z,1016.12
2017-08-22T03:45:21.286Z,1016.15
2017-08-22T03:46:21.309Z,1016.19
2017-08-22T03:47:21.329Z,1016.17
2017-08-22T03:48:21.353Z,1016.17
2017-08-22T03:50:21.398Z,1016.17
2017-08-22T03:51:21.417Z,1016.18
2017-08-22T03:52:21.439Z,1016.19
2017-08-22T03:53:21.458Z,1016.15
2017-08-22T03:54:21.485Z,1016.18
2017-08-22T03:55:21.506Z,1016.17
2017-08-22T03:56:21.530Z,1016.2
2017-08-22T03:57:21.549Z,1016.2
2017-08-22T03:58:21.571Z,1016.19
2017-08-22T03:59:21.595Z,1016.19
2017-08-22T04:00:21.612Z,1016.24
2017-08-22T04:01:21.643Z,1016.19
2017-08-22T04:02:21.659Z,1016.19
2017-08-22T04:03:21.684Z,1016.2
2017-08-22T04:04:21.700Z,1016.25
2017-08-22T04:06:21.743Z,1016.22
2017-08-22T04:07:21.770Z,1016.21
2017-08-22T04:08:21.791Z,1016.2
2017-08-22T04:09:21.816Z,1016.22
2017-08-22T04:10:21.836Z,1016.2
2017-08-22T04:11:21.858Z,1016.17
2017-08-22T04:12:21.882Z,1016.21
2017-08-22T04:13:21.903Z,1016.21
2017-08-22T04:14:21.922Z,1016.21
2017-08-22T04:15:21.948Z,1016.2
2017-08-22T04:16:21.968Z,1016.14
2017-08-22T04:17:21.994Z,1016.15
2017-08-22T04:18:22.009Z,1016.13
2017-08-22T04:19:22.033Z,1016.17
2017-08-22T04:20:22.052Z,1016.15
2017-08-22T04:22:22.098Z,1016.2
2017-08-22T04:23:22.121Z,1016.18
2017-08-22T04:24:22.146Z,1016.19
2017-08-22T04:25:22.163Z,1016.22
2017-08-22T04:26:22.189Z,1016.21
2017-08-22T04:27:22.211Z,1016.19
2017-08-22T04:28:22.236Z,1016.17
2017-08-22T04:29:22.302Z,1016.2
2017-08-22T04:30:22.278Z,1016.18
2017-08-22T04:31:22.300Z,1016.2
2017-08-22T04:32:22.321Z,1016.19
2017-08-22T04:33:22.344Z,1016.2
2017-08-22T04:34:22.361Z,1016.22
2017-08-22T04:35:22.391Z,1016.2
2017-08-22T04:36:22.406Z,1016.2
2017-08-22T04:38:22.462Z,1016.28
2017-08-22T04:39:22.477Z,1016.28
2017-08-22T04:40:22.499Z,1016.27
2017-08-22T04:41:22.521Z,1016.23
2017-08-22T04:42:22.544Z,1016.23
2017-08-22T04:43:22.566Z,1016.16
2017-08-22T04:44:22.585Z,1016.26
2017-08-22T04:45:22.610Z,1016.23
2017-08-22T04:46:22.633Z,1016.26
2017-08-22T04:47:22.653Z,1016.24
2017-08-22T04:48:22.677Z,1016.26
2017-08-22T04:49:22.700Z,1016.24
2017-08-22T04:50:22.722Z,1016.22
2017-08-22T04:51:22.742Z,1016.24
2017-08-22T04:53:22.787Z,1016.22
2017-08-22T04:54:22.814Z,1016.25
2017-08-22T04:55:22.833Z,1016.32
2017-08-22T04:56:22.857Z,1016.33
2017-08-22T04:57:22.879Z,1016.35
2017-08-22T04:58:22.902Z,1016.42
2017-08-22T04:59:22.927Z,1016.36
2017-08-22T05:00:22.952Z,1016.36
2017-08-22T05:01:22.972Z,1016.33
2017-08-22T05:02:22.995Z,1016.36
2017-08-22T05:03:23.016Z,1016.36
2017-08-22T05:04:23.044Z,1016.32
2017-08-22T05:05:23.065Z,1016.34
2017-08-22T05:06:23.090Z,1016.38
2017-08-22T05:07:23.119Z,1016.36
2017-08-22T05:08:23.136Z,1016.35
2017-08-22T05:09:23.161Z,1016.42
2017-08-22T05:10:23.185Z,1016.39
2017-08-22T05:11:23.210Z,1016.42
2017-08-22T05:12:23.229Z,1016.45
2017-08-22T05:13:23.260Z,1016.43
2017-08-22T05:14:23.281Z,1016.43
2017-08-22T05:15:23.308Z,1016.43
2017-08-22T05:16:23.332Z,1016.42
2017-08-22T05:17:23.358Z,1016.45
2017-08-22T05:18:23.383Z,1016.44
2017-08-22T05:19:23.405Z,1016.42
2017-08-22T05:20:23.429Z,1016.35
2017-08-22T05:21:23.456Z,1016.35
2017-08-22T05:22:23.481Z,1016.33
2017-08-22T05:23:23.509Z,1016.32
2017-08-22T05:25:23.555Z,1016.32
2017-08-22T05:26:23.577Z,1016.29
2017-08-22T05:27:23.601Z,1016.32
2017-08-22T05:28:23.627Z,1016.41
2017-08-22T05:29:23.653Z,1016.45
2017-08-22T05:30:23.678Z,1016.43
2017-08-22T05:31:23.700Z,1016.48
2017-08-22T05:32:23.727Z,1016.45
2017-08-22T05:33:23.751Z,1016.53
2017-08-22T05:34:23.776Z,1016.5
2017-08-22T05:35:23.799Z,1016.5
2017-08-22T05:36:23.827Z,1016.51
2017-08-22T05:37:23.850Z,1016.52
2017-08-22T05:38:23.875Z,1016.54
2017-08-22T05:39:23.899Z,1016.5
2017-08-22T05:41:23.952Z,1016.47
2017-08-22T05:42:23.975Z,1016.46
2017-08-22T05:43:24.005Z,1016.49
2017-08-22T05:44:24.029Z,1016.51
2017-08-22T05:45:24.051Z,1016.53
2017-08-22T05:46:24.076Z,1016.61
2017-08-22T05:47:24.106Z,1016.67
2017-08-22T05:48:24.130Z,1016.66
2017-08-22T05:49:24.161Z,1016.71
2017-08-22T05:50:24.182Z,1016.71
2017-08-22T05:51:24.210Z,1016.74
2017-08-22T05:52:24.239Z,1016.76
2017-08-22T05:53:24.264Z,1016.73
2017-08-22T05:54:24.292Z,1016.74
2017-08-22T05:55:24.315Z,1016.77
2017-08-22T05:57:24.369Z,1016.77
2017-08-22T05:58:24.399Z,1016.8
2017-08-22T05:59:24.426Z,1016.84
2017-08-22T06:00:24.448Z,1016.86
2017-08-22T06:01:24.480Z,1016.84
2017-08-22T06:02:24.509Z,1016.88
2017-08-22T06:03:24.538Z,1016.87
2017-08-22T06:04:24.559Z,1016.92
2017-08-22T06:05:24.595Z,1016.95
2017-08-22T06:06:24.618Z,1016.93
2017-08-22T06:07:24.642Z,1017.03
2017-08-22T06:08:24.673Z,1017.06
2017-08-22T06:09:24.703Z,1017.07
2017-08-22T06:10:24.729Z,1017.19
2017-08-22T06:11:24.759Z,1017.22
2017-08-22T06:13:24.819Z,1017.33
2017-08-22T06:14:24.848Z,1017.44
2017-08-22T06:15:24.877Z,1017.46
2017-08-22T06:16:24.911Z,1017.5
2017-08-22T06:17:24.936Z,1017.52
2017-08-22T06:18:24.964Z,1017.5
2017-08-22T06:19:24.995Z,1017.56
2017-08-22T06:20:25.027Z,1017.66
2017-08-22T06:21:25.051Z,1017.53
2017-08-22T06:22:25.084Z,1017.58
2017-08-22T06:23:25.113Z,1017.63
2017-08-22T06:24:25.142Z,1017.68
2017-08-22T06:25:25.177Z,1017.62
2017-08-22T06:26:25.202Z,1017.65
2017-08-22T06:28:25.266Z,1017.74
2017-08-22T06:29:25.298Z,1017.76
2017-08-22T06:30:25.330Z,1017.29
2017-08-22T06:31:25.356Z,1016.91
2017-08-22T06:32:25.391Z,1017.28
2017-08-22T06:33:25.420Z,1017.54
2017-08-22T06:34:25.453Z,1017.58
2017-08-22T06:35:25.482Z,1017.48
2017-08-22T06:36:25.513Z,1017.73
2017-08-22T06:37:25.544Z,1017.67
2017-08-22T06:38:25.574Z,1017.64
2017-08-22T06:39:25.606Z,1017.66
2017-08-22T06:40:25.639Z,1017.71
2017-08-22T06:41:25.667Z,1017.69
2017-08-22T06:42:25.699Z,1017.64
2017-08-22T06:43:25.729Z,1017.67
2017-08-22T06:44:25.761Z,1017.63
2017-08-22T06:45:25.788Z,1017.64
2017-08-22T06:46:25.826Z,1017.62
2017-08-22T06:47:25.854Z,1017.59
2017-08-22T06:48:25.883Z,1017.59
2017-08-22T06:49:25.920Z,1017.63
2017-08-22T06:50:25.947Z,1017.61
2017-08-22T06:51:25.982Z,1017.68
2017-08-22T06:52:26.015Z,1017.6
2017-08-22T06:53:26.047Z,1017.58
2017-08-22T06:54:26.081Z,1017.59
2017-08-22T06:55:26.117Z,1017.62
2017-08-22T06:56:26.143Z,1017.67
2017-08-22T06:57:26.222Z,1017.7
2017-08-22T06:58:26.210Z,1017.57
2017-08-22T07:00:26.274Z,1017.62
2017-08-22T07:01:26.308Z,1017.61
2017-08-22T07:02:26.342Z,1017.58
2017-08-22T07:03:26.373Z,1017.58
2017-08-22T07:04:26.407Z,1017.63
2017-08-22T07:05:26.435Z,1017.33
2017-08-22T07:06:26.475Z,1017.62
2017-08-22T07:07:26.502Z,1017.62
2017-08-22T07:08:26.537Z,1017.55
2017-08-22T07:09:26.574Z,1017.55
2017-08-22T07:10:26.605Z,1017.52
2017-08-22T07:11:26.639Z,1017.52
2017-08-22T07:12:26.671Z,1017.53
2017-08-22T07:13:26.706Z,1017.54
2017-08-22T07:14:26.739Z,1017.53
2017-08-22T07:16:26.806Z,1017.52
2017-08-22T07:17:26.841Z,1017.49
2017-08-22T07:18:26.873Z,1017.43
2017-08-22T07:19:26.906Z,1017.37
2017-08-22T07:20:26.938Z,1017.49
2017-08-22T07:21:26.972Z,1017.08
2017-08-22T07:22:27.005Z,1017.01
2017-08-22T07:23:27.035Z,1017.04
2017-08-22T07:24:27.071Z,1017.01
2017-08-22T07:25:27.105Z,1017.15
2017-08-22T07:26:27.137Z,1016.82
2017-08-22T07:27:27.173Z,1016.86
2017-08-22T07:28:27.205Z,1016.95
2017-08-22T07:29:27.238Z,1016.92
2017-08-22T07:30:27.271Z,1016.82
2017-08-22T07:32:27.335Z,1016.9
2017-08-22T07:33:27.364Z,1017.11
2017-08-22T07:34:27.399Z,1017.18
2017-08-22T07:35:27.431Z,1017.23
2017-08-22T07:36:27.462Z,1017.14
2017-08-22T07:37:27.497Z,1017.04
2017-08-22T07:38:27.527Z,1016.92
2017-08-22T07:39:27.560Z,1016.86
2017-08-22T07:40:27.593Z,1016.67
2017-08-22T07:41:27.623Z,1016.83
2017-08-22T07:42:27.654Z,1017.09
2017-08-22T07:43:27.688Z,1017.1
2017-08-22T07:44:27.720Z,1017.04
2017-08-22T07:45:27.755Z,1017.02
2017-08-22T07:46:27.781Z,1017.08
2017-08-22T07:48:27.850Z,1017.04
2017-08-22T07:49:27.881Z,1016.97
2017-08-22T07:50:27.909Z,1017
2017-08-22T07:51:27.946Z,1016.93
2017-08-22T07:52:27.982Z,1016.99
2017-08-22T07:53:28.010Z,1016.92
2017-08-22T07:54:28.143Z,1016.92
2017-08-22T07:55:28.073Z,1016.96
2017-08-22T07:56:28.109Z,1016.9
2017-08-22T07:57:28.141Z,1016.91
2017-08-22T07:58:28.173Z,1016.93
2017-08-22T07:59:28.204Z,1016.91
2017-08-22T08:00:28.240Z,1016.83
2017-08-22T08:01:28.271Z,1016.82
2017-08-22T08:03:28.338Z,1016.8
2017-08-22T08:04:28.374Z,1016.65
2017-08-22T08:05:28.407Z,1016.67
2017-08-22T08:06:28.441Z,1016.51
2017-08-22T08:07:28.471Z,1016.81
2017-08-22T08:08:28.505Z,1016.6
2017-08-22T08:09:28.539Z,1016.47
2017-08-22T08:10:28.573Z,1016.53
2017-08-22T08:11:28.600Z,1016.63
2017-08-22T08:12:28.637Z,1016.52
2017-08-22T08:13:28.669Z,1016.52
2017-08-22T08:14:28.700Z,1016.55
2017-08-22T08:15:28.727Z,1016.55
2017-08-22T08:16:28.759Z,1016.47
2017-08-22T08:17:28.792Z,1016.58
2017-08-22T08:18:28.826Z,1016.66
2017-08-22T08:19:28.857Z,1016.47
2017-08-22T08:20:28.889Z,1016.44
2017-08-22T08:21:28.918Z,1016.47
2017-08-22T08:22:28.952Z,1016.38
2017-08-22T08:23:28.981Z,1016.46
2017-08-22T08:24:29.014Z,1016.41
2017-08-22T08:25:29.043Z,1016.47
2017-08-22T08:26:29.072Z,1016.41
2017-08-22T08:27:29.099Z,1016.54
2017-08-22T08:28:29.133Z,1016.51
2017-08-22T08:29:29.161Z,1016.46
2017-08-22T08:30:29.188Z,1016.45
2017-08-22T08:31:29.219Z,1016.43
2017-08-22T08:32:29.251Z,1016.43
2017-08-22T08:33:29.278Z,1016.45
2017-08-22T08:35:29.336Z,1016.49
2017-08-22T08:36:29.366Z,1016.42
2017-08-22T08:37:29.394Z,1016.46
2017-08-22T08:38:29.422Z,1016.45
2017-08-22T08:39:29.447Z,1016.45
2017-08-22T08:40:29.481Z,1016.47
2017-08-22T08:41:29.503Z,1016.44
2017-08-22T08:42:29.535Z,1016.45
2017-08-22T08:43:29.561Z,1016.42
2017-08-22T08:44:29.589Z,1016.46
2017-08-22T08:45:29.617Z,1016.5
2017-08-22T08:46:29.645Z,1016.5
2017-08-22T08:47:29.673Z,1016.5
2017-08-22T08:48:29.699Z,1016.43
2017-08-22T08:49:29.726Z,1016.46
2017-08-22T08:51:29.778Z,1016.47
2017-08-22T08:52:29.809Z,1016.46
2017-08-22T08:53:29.836Z,1016.41
2017-08-22T08:54:29.864Z,1016.45
2017-08-22T08:55:29.888Z,1016.4
2017-08-22T08:56:29.917Z,1016.42
2017-08-22T08:57:29.945Z,1016.45
2017-08-22T08:58:29.970Z,1016.44
2017-08-22T08:59:29.999Z,1016.43
2017-08-22T09:00:30.023Z,1016.47
2017-08-22T09:01:30.052Z,1016.4
2017-08-22T09:02:30.082Z,1016.38
2017-08-22T09:03:30.103Z,1016.38
2017-08-22T09:04:30.140Z,1016.32
2017-08-22T09:05:30.163Z,1016.32
2017-08-22T09:07:30.214Z,1016.37
2017-08-22T09:08:30.242Z,1016.35
2017-08-22T09:09:30.269Z,1016.32
2017-08-22T09:10:30.293Z,1016.35
2017-08-22T09:11:30.323Z,1016.32
2017-08-22T09:12:30.349Z,1016.35
2017-08-22T09:13:30.374Z,1016.27
2017-08-22T09:14:30.402Z,1016.27
2017-08-22T09:15:30.428Z,1016.29
2017-08-22T09:16:30.454Z,1016.24
2017-08-22T09:17:30.485Z,1016.37
2017-08-22T09:18:30.509Z,1016.3
2017-08-22T09:19:30.535Z,1016.27
2017-08-22T09:20:30.565Z,1016.27
2017-08-22T09:21:30.592Z,1016.31
2017-08-22T09:23:30.642Z,1016.36
2017-08-22T09:24:30.670Z,1016.32
2017-08-22T09:25:30.694Z,1016.26
2017-08-22T09:26:30.723Z,1016.31
2017-08-22T09:27:30.748Z,1016.29
2017-08-22T09:28:30.778Z,1016.31
2017-08-22T09:29:30.803Z,1016.29
2017-08-22T09:30:30.831Z,1016.27
2017-08-22T09:31:30.855Z,1016.28
2017-08-22T09:32:30.881Z,1016.27
2017-08-22T09:33:30.910Z,1016.26
2017-08-22T09:34:30.938Z,1016.27
2017-08-22T09:35:30.960Z,1016.34
2017-08-22T09:36:30.990Z,1016.26
2017-08-22T09:38:31.041Z,1016.25
2017-08-22T09:39:31.069Z,1016.32
2017-08-22T09:40:31.098Z,1016.27
2017-08-22T09:41:31.128Z,1016.29
2017-08-22T09:42:31.148Z,1016.25
2017-08-22T09:43:31.177Z,1016.24
2017-08-22T09:44:31.206Z,1016.23
2017-08-22T09:45:31.235Z,1016.27
2017-08-22T09:46:31.257Z,1016.23
2017-08-22T09:47:31.283Z,1016.25
2017-08-22T09:48:31.311Z,1016.23
2017-08-22T09:49:31.341Z,1016.24
2017-08-22T09:50:31.368Z,1016.26
2017-08-22T09:51:31.395Z,1016.3
2017-08-22T09:52:31.423Z,1016.29
2017-08-22T09:53:31.453Z,1016.26
2017-08-22T09:54:31.476Z,1016.25
2017-08-22T09:55:31.506Z,1016.21
2017-08-22T09:56:31.532Z,1016.2
2017-08-22T09:57:31.563Z,1016.23
2017-08-22T09:58:31.591Z,1016.23
2017-08-22T09:59:31.617Z,1016.21
2017-08-22T10:00:31.643Z,1016.18
2017-08-22T10:01:31.669Z,1016.2
2017-08-22T10:02:31.700Z,1016.21
2017-08-22T10:03:31.727Z,1016.14
2017-08-22T10:04:31.758Z,1016.16
2017-08-22T10:05:31.782Z,1016.16
2017-08-22T10:06:31.811Z,1016.12
2017-08-22T10:07:31.834Z,1016.13
2017-08-22T10:08:31.865Z,1016.18
2017-08-22T10:10:31.920Z,1016.11
2017-08-22T10:11:31.948Z,1016.13
2017-08-22T10:12:31.977Z,1016.13
2017-08-22T10:13:32.002Z,1016.1
2017-08-22T10:14:32.031Z,1016.07
2017-08-22T10:15:32.057Z,1016.02
2017-08-22T10:16:32.085Z,1016.03
2017-08-22T10:17:32.113Z,1016.04
2017-08-22T10:18:32.138Z,1016.04
2017-08-22T10:19:32.174Z,1016.03
2017-08-22T10:20:32.190Z,1015.97
2017-08-22T10:21:32.222Z,1015.95
2017-08-22T10:22:32.250Z,1016.01
2017-08-22T10:23:32.276Z,1015.96
2017-08-22T10:24:32.301Z,1015.97
2017-08-22T10:26:32.360Z,1015.95
2017-08-22T10:27:32.387Z,1015.96
2017-08-22T10:28:32.414Z,1015.99
2017-08-22T10:29:32.442Z,1016
2017-08-22T10:30:32.473Z,1015.93
2017-08-22T10:31:32.495Z,1015.98
2017-08-22T10:32:32.522Z,1015.93
2017-08-22T10:33:32.552Z,1015.92
2017-08-22T10:34:32.579Z,1015.9
2017-08-22T10:35:32.607Z,1015.96
2017-08-22T10:36:32.634Z,1015.9
2017-08-22T10:37:32.659Z,1015.97
2017-08-22T10:38:32.686Z,1015.84
2017-08-22T10:39:32.714Z,1015.92
2017-08-22T10:40:32.740Z,1015.92
2017-08-22T10:42:32.792Z,1015.83
2017-08-22T10:43:32.874Z,1015.86
2017-08-22T10:44:32.847Z,1015.84
2017-08-22T10:45:32.875Z,1015.79
2017-08-22T10:46:32.897Z,1015.81
2017-08-22T10:47:32.926Z,1015.8
2017-08-22T10:48:32.956Z,1015.77
2017-08-22T10:49:32.976Z,1015.9
2017-08-22T10:50:33.005Z,1015.83
2017-08-22T10:51:33.033Z,1015.79
2017-08-22T10:52:33.059Z,1015.72
2017-08-22T10:53:33.083Z,1015.76
2017-08-22T10:54:33.112Z,1015.72
2017-08-22T10:55:33.136Z,1015.72
2017-08-22T10:56:33.163Z,1015.69
2017-08-22T10:58:33.213Z,1015.68
2017-08-22T10:59:33.244Z,1015.75
2017-08-22T11:00:33.267Z,1015.7
2017-08-22T11:01:33.295Z,1015.7
2017-08-22T11:02:33.320Z,1015.71
2017-08-22T11:03:33.395Z,1015.72
2017-08-22T11:04:33.369Z,1015.74
2017-08-22T11:05:33.398Z,1015.68
2017-08-22T11:06:33.422Z,1015.71
2017-08-22T11:07:33.451Z,1015.68
2017-08-22T11:08:33.475Z,1015.76
2017-08-22T11:09:33.502Z,1015.64
2017-08-22T11:10:33.524Z,1015.7
2017-08-22T11:11:33.556Z,1015.66
2017-08-22T11:13:33.604Z,1015.67
2017-08-22T11:14:33.633Z,1015.72
2017-08-22T11:15:33.654Z,1015.75
2017-08-22T11:16:33.684Z,1015.76
2017-08-22T11:17:33.708Z,1015.69
2017-08-22T11:18:33.731Z,1015.69
2017-08-22T11:19:33.758Z,1015.72
2017-08-22T11:20:33.785Z,1015.74
2017-08-22T11:21:33.803Z,1015.78
2017-08-22T11:22:33.831Z,1015.74
2017-08-22T11:23:33.862Z,1015.77
2017-08-22T11:24:33.885Z,1015.76
2017-08-22T11:25:33.913Z,1015.75
2017-08-22T11:26:33.939Z,1015.72
2017-08-22T11:27:33.962Z,1015.67
2017-08-22T11:28:33.989Z,1015.67
2017-08-22T11:29:34.010Z,1015.75
2017-08-22T11:30:34.040Z,1015.76
2017-08-22T11:31:34.069Z,1015.76
2017-08-22T11:32:34.084Z,1015.76
2017-08-22T11:33:34.115Z,1015.74
2017-08-22T11:34:34.139Z,1015.76
2017-08-22T11:35:34.166Z,1015.75
2017-08-22T11:36:34.196Z,1015.76
2017-08-22T11:37:34.218Z,1015.72
2017-08-22T11:38:34.246Z,1015.76
2017-08-22T11:39:34.269Z,1015.82
2017-08-22T11:40:34.291Z,1015.81
2017-08-22T11:41:34.322Z,1015.75
2017-08-22T11:42:34.347Z,1015.74
2017-08-22T11:43:34.378Z,1015.76
2017-08-22T11:45:34.425Z,1015.78
2017-08-22T11:46:34.449Z,1015.75
2017-08-22T11:47:34.474Z,1015.71
2017-08-22T11:48:34.503Z,1015.75
2017-08-22T11:49:34.528Z,1015.7
2017-08-22T11:50:34.552Z,1015.72
2017-08-22T11:51:34.576Z,1015.7
2017-08-22T11:52:34.602Z,1015.76
2017-08-22T11:53:34.625Z,1015.73
2017-08-22T11:54:34.653Z,1015.76
2017-08-22T11:55:34.682Z,1015.77
2017-08-22T11:56:34.707Z,1015.69
2017-08-22T11:57:34.733Z,1015.68
2017-08-22T11:58:34.759Z,1015.72
2017-08-22T11:59:34.778Z,1015.71
2017-08-22T12:01:34.833Z,1015.69
2017-08-22T12:02:34.857Z,1015.67
2017-08-22T12:03:34.886Z,1015.75
2017-08-22T12:04:34.910Z,1015.68
2017-08-22T12:05:34.932Z,1015.69
2017-08-22T12:06:34.960Z,1015.66
2017-08-22T12:07:34.987Z,1015.69
2017-08-22T12:08:35.016Z,1015.73
2017-08-22T12:09:35.034Z,1015.69
2017-08-22T12:10:35.059Z,1015.73
2017-08-22T12:11:35.086Z,1015.79
2017-08-22T12:12:35.116Z,1015.71
2017-08-22T12:13:35.141Z,1015.74
2017-08-22T12:14:35.161Z,1015.76
2017-08-22T12:15:35.190Z,1015.79
2017-08-22T12:17:35.290Z,1015.75
2017-08-22T12:18:35.263Z,1015.74
2017-08-22T12:19:35.298Z,1015.77
2017-08-22T12:20:35.319Z,1015.8
2017-08-22T12:21:35.338Z,1015.8
2017-08-22T12:22:35.367Z,1015.78
2017-08-22T12:23:35.393Z,1015.77
2017-08-22T12:24:35.414Z,1015.82
2017-08-22T12:25:35.445Z,1015.74
2017-08-22T12:26:35.470Z,1015.85
2017-08-22T12:27:35.493Z,1015.79
2017-08-22T12:28:35.519Z,1015.83
2017-08-22T12:29:35.545Z,1015.77
2017-08-22T12:30:35.576Z,1015.79
2017-08-22T12:31:35.598Z,1015.75
2017-08-22T12:33:35.643Z,1015.77
2017-08-22T12:34:35.667Z,1015.77
2017-08-22T12:35:35.695Z,1015.8
2017-08-22T12:36:35.719Z,1015.76
2017-08-22T12:37:35.748Z,1015.76
2017-08-22T12:38:36.072Z,1015.82
2017-08-22T12:39:35.795Z,1015.77
2017-08-22T12:40:35.819Z,1015.84
2017-08-22T12:41:35.849Z,1015.8
2017-08-22T12:42:35.872Z,1015.76
2017-08-22T12:43:35.896Z,1015.75
2017-08-22T12:44:35.926Z,1015.77
2017-08-22T12:45:35.951Z,1015.75
2017-08-22T12:46:35.976Z,1015.76
2017-08-22T12:48:36.027Z,1015.76
2017-08-22T12:49:36.054Z,1015.77